Geraldton Greenstone Regional Airport
CYGQ : now visible

Airfield :











YOU CAN JOIN US ON...

 
LOGIN :

Register | Disclaimer

   EN    FR    IT 

 









Legend :    VFR   Marginal VFR   IFR   Intensive IFR   Very Intensive IFR
Visi :
Ceiling :
>= 8 km
>= 3000ft
5 to 8 km
1000 to 3000 ft
1500m to 5 km
500 to 1000 ft
800 to 1500m
200 to 500 ft
< 800m
< 200 ft
Symbols :   Thunderstorms  Fog  Heavy snow  Heavy precipitations  Wind > 20 kt







- Airport Elevation : 1144 ft
- IATA code : YGQ


CYGQ - Geraldton Greenstone Regional

CURRENT METAR :
  • 212100Z 18013G25KT 2 1/2SM -SHRA BR BKN009 OVC015TCU 19/18 A2970 RMK FG2SF5TCU1 PRESFR SLP062 DENSITY ALT 2100FT

EXPIRED METARs :
  • 212051Z 18015G26KT 2 1/2SM -SHRA BR OVC010 19/17 A2972 RMK FG2SF6 CVCTV CLD EMDB PRESFR SLP068 DENSITY ALT 2200FT
  • 212000Z 18014G22KT 150V210 2 1/2SM BR OVC012 19/17 A2976 RMK FG1SF7 SLP082 DENSITY ALT 2100FT
  • 211900Z 17015G21KT 140V200 2 1/2SM BR OVC011 19/17 A2977 RMK FG1SF7 SLP087 DENSITY ALT 2100FT

TAF TAF CYGQ
Valid from the 21 at 20:00 until the 22 at 08:00 UTC


211938Z 2120/2208 17012G22KT 21/2SM BR OVC010
TEMPO 2120/2121 6SM BR OVC012
FM212100 18015G25KT P6SM OVC012
TEMPO 2121/2124 2SM -SHRA BR OVC008
PROB30 2121/2124 VRB25G40KT 1SM +TSRA BR BKN007 OVC040CB
FM220000 19012G22KT P6SM OVC012
TEMPO 2200/2206 3SM -SHRA BR OVC007
FM220600 23008KT P6SM SCT005 OVC010
TEMPO 2206/2208 2SM -DZ BR OVC005 RMK NXT FCST BY 220200Z
No reported NOTAMs for that airfield.



MET'MAP, your aeronautical weather chart ! - Copyright ORBIFLY December 2007 - Disclaimer

ORBIFLY MET'MAP TEAM :

Programming & Development : Alexandra Zaïnal
Concept & Development : Baudouin d'Aumeries
Co-Development & Prog : Marc-Olivier Méhu
Technical & hardware support : Manuel Goepfert

Contact : metmap@orbifly.com




SOURCES & CREDITS :

   NOAA       Earth
Advisory